Time;durP1;ratioP1;P1;durP2;ratioP2;P2;SDS_P1;SDS_P2;PMS_P1;PMS_P2;Temp;Humidity;BMP_temperature;BMP_pressure;BME280_temperature;BME280_humidity;BME280_pressure;Samples;Min_cycle;Max_cycle;Signal;HPM_P1;HPM_P2
2022/04/20 00:02:10;;;;;;;2.80;1.60;;;;;;;9.49;nan;100293.59;4988035;28;20438;-70
2022/04/20 00:04:35;;;;;;;3.28;1.60;;;;;;;9.53;nan;100309.00;4993985;28;20034;-71
2022/04/20 00:07:01;;;;;;;2.30;1.60;;;;;;;9.59;nan;100298.81;4992309;28;20030;-71
2022/04/20 00:09:26;;;;;;;2.88;1.58;;;;;;;9.64;nan;100307.09;4978596;28;20026;-71
2022/04/20 00:11:52;;;;;;;2.17;1.52;;;;;;;9.68;nan;100311.09;4978266;28;20046;-71
2022/04/20 00:14:17;;;;;;;2.75;1.63;;;;;;;9.67;nan;100310.25;4978124;28;20038;-73
2022/04/20 00:16:42;;;;;;;3.42;1.63;;;;;;;9.65;nan;100298.19;4998181;28;20442;-71
2022/04/20 00:19:08;;;;;;;3.45;1.55;;;;;;;9.63;nan;100308.06;4997367;28;20486;-71
2022/04/20 00:21:33;;;;;;;1.90;1.38;;;;;;;9.55;nan;100304.38;4993626;28;20058;-71
2022/04/20 00:23:58;;;;;;;2.08;1.30;;;;;;;9.53;nan;100301.06;4979752;28;20113;-71
2022/04/20 00:26:24;;;;;;;;;;;;;;;9.49;nan;100312.91;4997537;28;20040;-71
2022/04/20 00:28:49;;;;;;;2.95;1.58;;;;;;;9.45;nan;100306.25;4995982;28;20322;-71
2022/04/20 00:31:14;;;;;;;2.58;1.80;;;;;;;9.49;nan;100299.69;4978998;28;20106;-71
2022/04/20 00:33:40;;;;;;;3.13;1.33;;;;;;;9.53;nan;100303.72;4998963;28;20201;-72
2022/04/20 00:36:05;;;;;;;3.28;1.50;;;;;;;9.51;nan;100305.66;4998015;28;20042;-72
2022/04/20 00:38:31;;;;;;;2.07;1.30;;;;;;;9.52;nan;100309.94;4998806;28;20756;-71
2022/04/20 00:40:56;;;;;;;1.77;1.23;;;;;;;9.50;nan;100314.56;4993662;28;20137;-71
2022/04/20 00:43:22;;;;;;;1.88;1.30;;;;;;;9.36;nan;100302.69;4996528;28;20035;-71
2022/04/20 00:45:49;;;;;;;2.67;1.42;;;;;;;9.20;nan;100313.09;4999602;28;20074;-72
2022/04/20 00:48:15;;;;;;;2.83;1.55;;;;;;;9.07;nan;100313.44;5000753;28;20034;-72
2022/04/20 00:50:44;;;;;;;2.63;1.60;;;;;;;9.10;nan;100309.66;4998489;28;20088;-71
2022/04/20 00:53:10;;;;;;;2.28;1.40;;;;;;;9.08;nan;100308.97;4998027;28;20030;-71
2022/04/20 00:55:35;;;;;;;3.20;1.65;;;;;;;9.05;nan;100310.09;4991346;28;20045;-71
2022/04/20 00:58:00;;;;;;;3.10;1.67;;;;;;;9.00;nan;100312.34;4997696;28;20072;-71
2022/04/20 01:00:27;;;;;;;2.47;1.30;;;;;;;8.94;nan;100310.31;4999045;28;20030;-72
2022/04/20 01:02:53;;;;;;;2.28;1.50;;;;;;;8.90;nan;100311.59;5002804;28;20050;-71
2022/04/20 01:05:19;;;;;;;4.95;1.60;;;;;;;8.88;nan;100313.53;4995858;28;20041;-71
2022/04/20 01:07:45;;;;;;;2.30;1.50;;;;;;;8.81;nan;100309.81;4994121;28;20038;-71
2022/04/20 01:10:10;;;;;;;2.53;1.35;;;;;;;8.70;nan;100316.13;4974070;28;20038;-72
2022/04/20 01:12:36;;;;;;;2.70;1.63;;;;;;;8.67;nan;100317.22;4993894;28;20042;-71
2022/04/20 01:15:02;;;;;;;3.35;1.50;;;;;;;8.55;nan;100313.09;4993073;28;20039;-71
2022/04/20 01:17:27;;;;;;;2.10;1.50;;;;;;;8.39;nan;100313.69;4975934;28;20044;-71
2022/04/20 01:19:53;;;;;;;4.90;1.75;;;;;;;8.42;nan;100318.69;4996886;28;20129;-71
2022/04/20 01:22:18;;;;;;;2.38;1.88;;;;;;;8.49;nan;100317.16;4993708;28;20081;-71
2022/04/20 01:24:43;;;;;;;3.30;1.60;;;;;;;8.45;nan;100321.03;4994003;28;20453;-71
2022/04/20 01:27:10;;;;;;;4.00;1.90;;;;;;;8.41;nan;100319.66;4995092;28;20049;-71
2022/04/20 01:29:36;;;;;;;2.78;1.40;;;;;;;8.41;nan;100324.94;4992895;28;20030;-71
2022/04/20 01:32:02;;;;;;;2.13;1.33;;;;;;;8.32;nan;100322.28;4995427;28;20513;-71
2022/04/20 01:34:27;;;;;;;2.40;1.60;;;;;;;8.20;nan;100325.09;5012294;28;20046;-71
2022/04/20 01:36:52;;;;;;;2.20;1.58;;;;;;;8.14;nan;100327.47;5010789;28;20041;-71
2022/04/20 01:39:18;;;;;;;2.47;1.55;;;;;;;8.01;nan;100320.69;5012658;28;20034;-71
2022/04/20 01:41:43;;;;;;;2.47;1.38;;;;;;;7.87;nan;100315.84;5013171;28;20412;-71
2022/04/20 01:44:09;;;;;;;2.75;1.48;;;;;;;7.74;nan;100316.13;5011610;28;20552;-71
2022/04/20 01:46:35;;;;;;;3.35;1.75;;;;;;;7.78;nan;100327.22;5016345;28;20113;-71
2022/04/20 01:49:01;;;;;;;3.28;1.58;;;;;;;7.81;nan;100325.13;5010695;28;20561;-71
2022/04/20 01:54:11;;;;;;;3.60;1.60;;;;;;;7.73;nan;100321.53;5011024;28;20045;-72
2022/04/20 01:56:37;;;;;;;2.38;1.55;;;;;;;7.66;nan;100322.06;5011946;28;20030;-71
2022/04/20 01:59:02;;;;;;;2.33;1.60;;;;;;;7.59;nan;100320.13;5010410;28;20030;-71
2022/04/20 02:04:12;;;;;;;1.98;1.45;;;;;;;7.34;nan;100324.09;5009401;28;20059;-71
2022/04/20 02:06:38;;;;;;;2.30;1.27;;;;;;;7.25;nan;100317.88;4992705;28;20034;-71
2022/04/20 02:09:03;;;;;;;2.53;1.40;;;;;;;7.16;nan;100318.69;4996400;28;20077;-71
2022/04/20 02:11:29;;;;;;;2.50;1.30;;;;;;;7.11;nan;100326.16;4986726;28;20088;-71
2022/04/20 02:13:54;;;;;;;3.67;1.63;;;;;;;7.06;nan;100313.41;4994613;28;20041;-71
2022/04/20 02:16:19;;;;;;;2.47;1.30;;;;;;;6.97;nan;100311.56;4988390;28;20058;-71
2022/04/20 02:18:44;;;;;;;2.40;1.50;;;;;;;6.88;nan;100313.19;4991503;28;20546;-71
2022/04/20 02:21:10;;;;;;;2.95;1.60;;;;;;;6.77;nan;100319.41;4990679;28;20097;-71
2022/04/20 02:23:35;;;;;;;2.65;1.45;;;;;;;6.67;nan;100313.25;4991837;28;20089;-71
2022/04/20 02:26:01;;;;;;;1.92;1.20;;;;;;;6.58;nan;100320.16;4992371;28;20093;-71
2022/04/20 02:28:26;;;;;;;3.13;1.85;;;;;;;6.48;nan;100319.25;4988509;28;20049;-71
2022/04/20 02:30:52;;;;;;;3.75;1.52;;;;;;;6.45;nan;100313.44;4990393;28;20123;-71
2022/04/20 02:33:17;;;;;;;2.75;1.52;;;;;;;6.40;nan;100319.06;4988685;28;20058;-71
2022/04/20 02:35:43;;;;;;;3.88;1.85;;;;;;;6.36;nan;100321.16;4989882;28;21048;-71
2022/04/20 02:38:10;;;;;;;3.95;1.85;;;;;;;6.32;nan;100324.16;4990125;28;20045;-71
2022/04/20 02:40:39;;;;;;;4.53;2.05;;;;;;;6.39;nan;100322.69;4985880;28;20030;-71
2022/04/20 02:43:05;;;;;;;3.67;2.20;;;;;;;6.52;nan;100330.34;4983545;28;20092;-71
2022/04/20 02:45:30;;;;;;;3.00;1.70;;;;;;;6.61;nan;100321.69;4992841;28;20443;-71
2022/04/20 02:47:56;;;;;;;3.30;1.80;;;;;;;6.65;nan;100325.72;4991990;28;20030;-71
2022/04/20 02:50:21;;;;;;;3.13;1.80;;;;;;;6.62;nan;100323.31;4990376;28;20101;-72
2022/04/20 02:52:46;;;;;;;2.72;1.75;;;;;;;6.58;nan;100324.56;4993042;28;20046;-70
2022/04/20 02:55:12;;;;;;;3.95;2.25;;;;;;;6.55;nan;100320.41;4990160;28;20026;-71
2022/04/20 02:57:37;;;;;;;3.95;1.70;;;;;;;6.62;nan;100335.63;4991303;28;20057;-71
2022/04/20 03:00:04;;;;;;;3.55;1.80;;;;;;;6.57;nan;100331.59;4988379;28;20439;-71
2022/04/20 03:02:29;;;;;;;3.55;2.10;;;;;;;6.45;nan;100324.78;4990714;28;20046;-71
2022/04/20 03:04:55;;;;;;;2.30;1.60;;;;;;;6.48;nan;100327.13;4992820;28;20061;-71
2022/04/20 03:07:20;;;;;;;3.58;1.98;;;;;;;6.51;nan;100333.94;4994431;28;20069;-71
2022/04/20 03:09:45;;;;;;;3.63;1.70;;;;;;;6.50;nan;100338.34;4993345;28;20042;-71
2022/04/20 03:12:11;;;;;;;4.07;2.20;;;;;;;6.50;nan;100333.09;4992643;28;20033;-71
2022/04/20 03:14:36;;;;;;;6.35;2.30;;;;;;;6.56;nan;100331.75;4994385;28;20055;-71
2022/04/20 03:17:02;;;;;;;4.03;2.28;;;;;;;6.64;nan;100328.47;4995253;28;20038;-71
2022/04/20 03:19:27;;;;;;;3.92;2.05;;;;;;;6.69;nan;100334.97;4986673;28;20031;-71
2022/04/20 03:21:53;;;;;;;5.78;2.25;;;;;;;6.75;nan;100334.47;4994154;28;20034;-71
2022/04/20 03:24:18;;;;;;;3.78;2.00;;;;;;;6.76;nan;100337.91;4989185;28;20026;-71
2022/04/20 03:26:45;;;;;;;4.72;2.25;;;;;;;6.78;nan;100336.00;4991116;28;20100;-71
2022/04/20 03:29:10;;;;;;;4.40;2.25;;;;;;;6.79;nan;100328.00;4993428;28;20042;-71
2022/04/20 03:31:37;;;;;;;3.83;2.00;;;;;;;6.83;nan;100338.22;4996294;28;20522;-71
2022/04/20 03:34:03;;;;;;;3.70;2.03;;;;;;;6.87;nan;100342.25;4997990;28;20093;-71
2022/04/20 03:36:30;;;;;;;6.53;2.35;;;;;;;6.86;nan;100343.22;4992076;28;20110;-71
2022/04/20 03:38:55;;;;;;;4.43;2.20;;;;;;;6.85;nan;100342.38;4996838;28;20038;-71
2022/04/20 03:41:22;;;;;;;3.83;2.90;;;;;;;6.81;nan;100339.16;4996971;28;20057;-72
2022/04/20 03:43:48;;;;;;;3.08;1.95;;;;;;;6.78;nan;100338.63;4994788;28;20125;-70
2022/04/20 03:46:13;;;;;;;5.28;2.60;;;;;;;6.78;nan;100342.06;4992099;28;20049;-71
2022/04/20 03:48:39;;;;;;;3.67;2.30;;;;;;;6.79;nan;100343.75;4988815;28;20085;-71
2022/04/20 03:51:04;;;;;;;3.70;2.20;;;;;;;6.75;nan;100344.16;4991871;28;20522;-71
2022/04/20 03:53:30;;;;;;;4.05;2.28;;;;;;;6.73;nan;100346.91;4992139;28;20077;-71
2022/04/20 03:55:55;;;;;;;3.65;2.17;;;;;;;6.69;nan;100352.53;4992629;28;20042;-72
2022/04/20 03:58:21;;;;;;;3.35;2.15;;;;;;;6.69;nan;100352.53;4992497;28;20069;-71
2022/04/20 04:00:46;;;;;;;3.45;2.20;;;;;;;6.65;nan;100351.13;4992517;28;20041;-72
2022/04/20 04:03:11;;;;;;;5.97;2.40;;;;;;;6.62;nan;100354.03;4992292;28;20069;-71
2022/04/20 04:05:37;;;;;;;3.00;2.28;;;;;;;6.56;nan;100347.50;4997441;28;20032;-71
2022/04/20 04:08:02;;;;;;;4.82;2.33;;;;;;;6.52;nan;100354.81;4993102;28;20039;-71
2022/04/20 04:10:28;;;;;;;4.75;2.20;;;;;;;6.53;nan;100355.63;4990625;28;20038;-71
2022/04/20 04:12:56;;;;;;;4.43;2.40;;;;;;;6.49;nan;100355.06;4989824;28;20077;-72
2022/04/20 04:15:21;;;;;;;4.78;2.65;;;;;;;6.50;nan;100353.28;4989360;28;20376;-71
2022/04/20 04:17:54;;;;;;;6.55;3.58;;;;;;;6.46;nan;100349.22;4992926;28;20041;-71
2022/04/20 04:20:20;;;;;;;21.38;7.30;;;;;;;6.43;nan;100347.69;4992121;28;20066;-71
2022/04/20 04:22:45;;;;;;;19.80;6.43;;;;;;;6.35;nan;100350.16;4992534;28;20038;-71
2022/04/20 04:25:11;;;;;;;26.33;7.95;;;;;;;6.32;nan;100342.53;4993097;28;20049;-71
2022/04/20 04:27:36;;;;;;;19.30;6.13;;;;;;;6.29;nan;100348.88;4990797;28;20125;-71
2022/04/20 04:30:02;;;;;;;19.05;6.28;;;;;;;6.28;nan;100356.88;4992033;28;20069;-71
2022/04/20 04:32:27;;;;;;;19.33;6.30;;;;;;;6.21;nan;100363.59;4991605;28;20038;-71
2022/04/20 04:34:52;;;;;;;20.65;6.13;;;;;;;6.16;nan;100356.94;4990315;28;20038;-71
2022/04/20 04:37:18;;;;;;;5.47;2.83;;;;;;;6.17;nan;100357.75;4991850;28;20450;-71
2022/04/20 04:39:43;;;;;;;3.58;2.40;;;;;;;6.17;nan;100349.88;4993188;28;20062;-72
2022/04/20 04:42:08;;;;;;;3.63;2.47;;;;;;;6.16;nan;100361.34;4982248;28;20066;-71
2022/04/20 04:44:34;;;;;;;4.18;2.45;;;;;;;6.12;nan;100363.38;4992475;28;20047;-71
2022/04/20 04:49:43;;;;;;;4.15;2.58;;;;;;;6.08;nan;100359.38;4992568;28;20037;-71
2022/04/20 04:52:11;;;;;;;3.58;2.30;;;;;;;6.10;nan;100360.09;4988205;28;20038;-72
2022/04/20 04:54:39;;;;;;;3.95;2.30;;;;;;;6.09;nan;100360.19;4991819;28;20269;-71
2022/04/20 04:57:07;;;;;;;5.22;2.70;;;;;;;6.07;nan;100356.88;4991655;28;20074;-71
2022/04/20 04:59:32;;;;;;;4.25;2.60;;;;;;;6.04;nan;100357.94;4991458;28;20042;-71
2022/04/20 05:01:58;;;;;;;4.07;2.45;;;;;;;6.07;nan;100370.00;4990560;28;20042;-71
2022/04/20 05:04:23;;;;;;;5.03;2.72;;;;;;;6.13;nan;100367.69;4985901;28;20050;-71
2022/04/20 05:06:48;;;;;;;4.95;2.60;;;;;;;6.14;nan;100371.97;4990316;28;20252;-71
2022/04/20 05:09:14;;;;;;;5.82;2.90;;;;;;;6.22;nan;100375.75;4989688;28;20038;-71
2022/04/20 05:11:39;;;;;;;3.95;2.53;;;;;;;6.30;nan;100371.53;4992409;28;20503;-71
2022/04/20 05:14:04;;;;;;;5.75;2.30;;;;;;;6.43;nan;100368.72;4991183;28;20042;-71
2022/04/20 05:16:30;;;;;;;6.05;2.80;;;;;;;6.53;nan;100369.63;5006330;28;20448;-72
2022/04/20 05:18:55;;;;;;;4.18;2.50;;;;;;;6.71;nan;100371.66;4991316;28;20129;-72
2022/04/20 05:21:20;;;;;;;6.22;2.50;;;;;;;6.87;nan;100364.13;4990457;28;20125;-72
2022/04/20 05:23:46;;;;;;;3.35;2.28;;;;;;;7.05;nan;100372.19;4994985;28;20056;-72
2022/04/20 05:26:11;;;;;;;3.95;2.30;;;;;;;7.16;nan;100371.28;4995633;28;20045;-72
2022/04/20 05:28:37;;;;;;;4.57;2.38;;;;;;;7.32;nan;100374.25;4996060;28;20042;-72
2022/04/20 05:31:03;;;;;;;3.28;2.10;;;;;;;7.50;nan;100377.03;4997026;28;20097;-72
2022/04/20 05:33:28;;;;;;;3.13;2.20;;;;;;;7.68;nan;100377.22;4998745;28;20068;-72
2022/04/20 05:35:54;;;;;;;4.40;2.75;;;;;;;7.83;nan;100367.94;4995966;28;20034;-72
2022/04/20 05:43:49;;;;;;;4.75;2.75;;;;;;;8.37;nan;100367.50;4993059;28;20092;-73
2022/04/20 05:46:14;;;;;;;3.78;2.33;;;;;;;8.42;nan;100375.84;4993561;28;20125;-73
2022/04/20 05:48:40;;;;;;;4.35;2.50;;;;;;;8.67;nan;100379.66;4992983;28;20089;-72
2022/04/20 05:51:07;;;;;;;4.45;2.45;;;;;;;8.81;nan;100379.19;4995009;28;20073;-72
2022/04/20 05:53:32;;;;;;;3.75;2.20;;;;;;;8.89;nan;100379.31;4995726;28;20502;-72
2022/04/20 05:55:58;;;;;;;4.00;2.40;;;;;;;9.10;nan;100379.06;4995095;28;20069;-72
2022/04/20 05:58:23;;;;;;;3.90;2.20;;;;;;;9.35;nan;100388.13;4996990;28;20039;-72
2022/04/20 06:00:48;;;;;;;4.57;2.65;;;;;;;9.56;nan;100384.41;4995974;28;20046;-73
2022/04/20 06:03:14;;;;;;;3.05;2.20;;;;;;;9.61;nan;100376.03;4991870;28;20125;-72
2022/04/20 06:05:41;;;;;;;3.88;2.17;;;;;;;9.88;nan;100375.97;4994277;28;20090;-73
2022/04/20 06:08:07;;;;;;;3.95;2.22;;;;;;;10.05;nan;100378.75;4992573;28;20060;-73
2022/04/20 06:10:32;;;;;;;4.10;2.50;;;;;;;10.25;nan;100382.06;4993640;28;20037;-73
2022/04/20 06:12:59;;;;;;;3.50;2.10;;;;;;;10.48;nan;100382.44;4990092;28;20054;-73
2022/04/20 06:15:24;;;;;;;3.95;2.10;;;;;;;10.67;nan;100384.88;4996473;28;20057;-72
2022/04/20 06:17:50;;;;;;;4.35;2.38;;;;;;;10.82;nan;100387.75;4989145;28;20045;-72
2022/04/20 06:20:15;;;;;;;3.45;1.80;;;;;;;11.00;nan;100385.06;4996094;28;20042;-72
2022/04/20 06:22:40;;;;;;;2.72;1.80;;;;;;;11.30;nan;100383.72;4993129;28;20042;-73
2022/04/20 06:25:06;;;;;;;3.60;1.80;;;;;;;11.54;nan;100387.41;4995332;28;20114;-73
2022/04/20 06:27:32;;;;;;;2.72;1.90;;;;;;;11.62;nan;100382.97;4997104;28;20034;-73
2022/04/20 06:29:58;;;;;;;2.63;2.00;;;;;;;11.92;nan;100382.53;4996695;28;20089;-73
2022/04/20 06:32:24;;;;;;;3.40;2.22;;;;;;;12.17;nan;100381.56;4993621;28;20042;-73
2022/04/20 06:34:53;;;;;;;5.72;2.30;;;;;;;12.21;nan;100377.59;4992128;28;20065;-73
2022/04/20 06:37:19;;;;;;;6.47;2.03;;;;;;;12.08;nan;100375.44;4991533;28;20479;-73
2022/04/20 06:39:45;;;;;;;3.28;2.10;;;;;;;12.16;nan;100368.50;4992370;28;20037;-73
2022/04/20 06:42:11;;;;;;;3.80;2.20;;;;;;;12.52;nan;100377.72;4990271;28;20861;-73
2022/04/20 06:44:36;;;;;;;3.15;1.73;;;;;;;12.68;nan;100365.41;4989688;28;20042;-73
2022/04/20 06:47:02;;;;;;;3.57;2.10;;;;;;;13.07;nan;100360.16;4988868;28;20560;-73
2022/04/20 06:49:27;;;;;;;3.95;2.10;;;;;;;13.56;nan;100367.09;4992552;28;20514;-73
2022/04/20 07:00:06;;;;;;;5.25;2.10;;;;;;;14.72;nan;100370.50;4993060;28;20041;-73
2022/04/20 07:02:32;;;;;;;3.40;2.00;;;;;;;14.76;nan;100375.28;4991107;28;20038;-73
2022/04/20 07:04:57;;;;;;;3.20;1.90;;;;;;;14.68;nan;100369.22;4989723;28;20542;-73
2022/04/20 07:07:23;;;;;;;2.25;1.60;;;;;;;14.59;nan;100369.31;4991102;28;20069;-73
2022/04/20 07:09:48;;;;;;;2.75;1.70;;;;;;;14.58;nan;100372.13;4989885;28;20129;-73
2022/04/20 07:12:14;;;;;;;3.58;1.90;;;;;;;14.72;nan;100363.34;4991007;28;20113;-73
2022/04/20 07:14:40;;;;;;;3.67;1.70;;;;;;;15.00;nan;100370.69;4990022;28;20410;-73
2022/04/20 07:17:06;;;;;;;;;;;;;;;14.79;nan;100368.75;4991091;28;20049;-73
2022/04/20 07:19:31;;;;;;;5.28;1.70;;;;;;;14.62;nan;100373.44;4990889;28;20150;-72
2022/04/20 07:21:57;;;;;;;3.33;2.05;;;;;;;14.90;nan;100375.44;4984393;28;20039;-73
2022/04/20 07:24:22;;;;;;;3.25;1.98;;;;;;;15.04;nan;100371.97;4989364;28;20687;-73
2022/04/20 07:26:48;;;;;;;3.97;2.00;;;;;;;14.95;nan;100375.75;4991320;28;20495;-73
2022/04/20 07:29:13;;;;;;;3.25;1.92;;;;;;;15.12;nan;100382.53;4990190;28;20410;-73
2022/04/20 07:31:38;;;;;;;3.25;2.00;;;;;;;14.63;nan;100381.25;4993632;28;20042;-73
2022/04/20 07:34:03;;;;;;;3.17;1.60;;;;;;;14.90;nan;100378.97;4991246;28;20201;-73
2022/04/20 07:36:29;;;;;;;4.13;1.90;;;;;;;15.05;nan;100382.44;4990531;28;20073;-73
2022/04/20 07:38:54;;;;;;;5.55;2.10;;;;;;;15.21;nan;100386.75;4988696;28;20041;-73
2022/04/20 07:41:20;;;;;;;2.50;2.00;;;;;;;15.03;nan;100383.63;4991514;28;20030;-74
2022/04/20 07:43:45;;;;;;;2.28;1.50;;;;;;;15.20;nan;100386.94;4989515;28;20094;-73
2022/04/20 07:46:12;;;;;;;3.38;1.80;;;;;;;15.46;nan;100381.91;4989955;28;20092;-74
2022/04/20 07:48:38;;;;;;;3.45;2.10;;;;;;;15.34;nan;100383.41;4991326;28;20039;-74
2022/04/20 07:51:03;;;;;;;4.32;1.90;;;;;;;15.60;nan;100392.75;4985487;28;20510;-73
2022/04/20 07:53:28;;;;;;;3.20;2.10;;;;;;;15.80;nan;100392.97;4994367;28;20038;-73
2022/04/20 07:55:53;;;;;;;5.32;2.35;;;;;;;16.11;nan;100400.66;4995178;28;20042;-73
2022/04/20 07:58:21;;;;;;;3.67;2.42;;;;;;;16.38;nan;100393.75;4995347;28;20117;-74
2022/04/20 08:00:49;;;;;;;3.90;2.00;;;;;;;16.20;nan;100407.53;4997987;28;20030;-74
2022/04/20 08:03:19;;;;;;;2.65;1.90;;;;;;;16.13;nan;100402.13;4994574;28;20110;-74
2022/04/20 08:05:50;;;;;;;2.80;2.08;;;;;;;16.66;nan;100403.56;4994721;28;20042;-74
2022/04/20 08:08:18;;;;;;;4.15;1.90;;;;;;;16.94;nan;100401.75;4995016;28;20038;-74
2022/04/20 08:10:44;;;;;;;3.67;2.10;;;;;;;17.00;nan;100384.13;4994548;28;20096;-74
2022/04/20 08:15:55;;;;;;;2.92;1.90;;;;;;;17.24;nan;100396.16;4999204;28;20046;-74
2022/04/20 08:18:21;;;;;;;2.70;1.75;;;;;;;17.53;nan;100383.53;4995759;28;20030;-73
2022/04/20 08:20:47;;;;;;;3.35;1.60;;;;;;;17.79;nan;100393.47;4996213;28;20097;-74
2022/04/20 08:23:12;;;;;;;2.72;1.85;;;;;;;18.16;nan;100385.91;4995939;28;20510;-74
2022/04/20 08:25:39;;;;;;;2.65;1.40;;;;;;;18.34;nan;100383.47;4992308;28;20070;-73
2022/04/20 08:28:05;;;;;;;2.40;1.60;;;;;;;18.54;nan;100394.16;5005297;28;20057;-73
2022/04/20 08:30:31;;;;;;;2.75;1.77;;;;;;;18.89;nan;100380.53;4988959;28;20035;-74
2022/04/20 08:32:57;;;;;;;3.25;1.70;;;;;;;18.98;nan;100379.28;4987688;28;20034;-74
2022/04/20 08:35:22;;;;;;;3.55;1.90;;;;;;;18.91;nan;100380.34;4989114;28;20042;-75
2022/04/20 08:37:48;;;;;;;2.80;1.50;;;;;;;19.09;nan;100369.75;4993467;28;20065;-73
2022/04/20 08:40:13;;;;;;;3.85;2.00;;;;;;;19.04;nan;100372.25;4991512;28;20030;-74
2022/04/20 08:42:40;;;;;;;3.53;1.70;;;;;;;18.73;nan;100379.09;4994680;28;20034;-74
2022/04/20 08:45:05;;;;;;;2.63;1.70;;;;;;;19.18;nan;100375.72;4993371;28;20038;-74
2022/04/20 08:47:39;;;;;;;2.40;2.00;;;;;;;19.03;nan;100360.72;4992776;28;20064;-74
2022/04/20 08:50:07;;;;;;;2.63;1.40;;;;;;;19.79;nan;100369.06;4994349;28;20039;-73
2022/04/20 08:52:39;;;;;;;2.80;1.65;;;;;;;20.09;nan;100378.13;4990483;28;20046;-73
2022/04/20 08:55:10;;;;;;;2.38;1.45;;;;;;;19.93;nan;100376.78;4991809;28;20030;-74
2022/04/20 08:57:37;;;;;;;3.08;1.60;;;;;;;19.45;nan;100366.53;4989933;28;20072;-74
2022/04/20 09:00:10;;;;;;;2.55;1.50;;;;;;;19.80;nan;100362.63;4983174;28;20097;-74
2022/04/20 09:02:36;;;;;;;3.22;1.70;;;;;;;19.98;nan;100375.31;4988952;28;20398;-74
2022/04/20 09:05:03;;;;;;;2.55;1.52;;;;;;;19.55;nan;100367.94;4994898;28;20031;-74
2022/04/20 09:07:31;;;;;;;2.95;1.42;;;;;;;19.57;nan;100369.34;4989184;28;20910;-74
2022/04/20 09:09:57;;;;;;;2.40;1.60;;;;;;;19.77;nan;100365.75;4989841;28;20380;-74
2022/04/20 09:12:26;;;;;;;2.20;1.38;;;;;;;19.97;nan;100362.94;4984863;28;20065;-74
2022/04/20 09:14:53;;;;;;;1.77;1.40;;;;;;;20.14;nan;100364.03;4985688;28;20038;-73
2022/04/20 09:17:20;;;;;;;2.55;1.50;;;;;;;20.29;nan;100355.66;4993019;28;20125;-74
2022/04/20 09:19:53;;;;;;;3.40;1.52;;;;;;;19.91;nan;100356.59;4993188;28;20554;-74
2022/04/20 09:22:23;;;;;;;2.97;1.60;;;;;;;20.92;nan;100360.84;4990524;28;20038;-74
2022/04/20 09:25:06;;;;;;;2.20;1.60;;;;;;;21.01;nan;100358.69;4990560;28;20050;-74
2022/04/20 09:27:36;;;;;;;1.98;1.35;;;;;;;21.32;nan;100351.47;5012255;23;20069;-72
2022/04/20 09:30:04;;;;;;;3.53;1.50;;;;;;;21.81;nan;100347.72;5023632;28;20041;-72
2022/04/20 09:32:36;;;;;;;3.60;1.80;;;;;;;22.81;nan;100351.44;5026225;28;20033;-72
2022/04/20 09:35:06;;;;;;;;;;;;;;;22.99;nan;100337.00;5032243;28;20416;-72
2022/04/20 09:37:32;;;;;;;3.50;1.48;;;;;;;22.38;nan;100343.69;5027200;28;19996;-72
2022/04/20 09:39:58;;;;;;;2.08;1.52;;;;;;;21.90;nan;100337.41;5028282;28;20045;-72
2022/04/20 09:42:24;;;;;;;2.92;1.90;;;;;;;21.95;nan;100342.09;5030124;28;20033;-72
2022/04/20 09:45:07;;;;;;;4.05;1.92;;;;;;;22.86;nan;100329.97;5023039;28;20200;-72
2022/04/20 09:50:26;;;;;;;3.22;1.90;;;;;;;21.89;nan;100340.34;5029806;28;20092;-72
2022/04/20 09:52:58;;;;;;;2.27;1.73;;;;;;;21.49;nan;100333.69;5029936;28;20048;-72
2022/04/20 09:55:31;;;;;;;2.15;1.50;;;;;;;21.97;nan;100334.63;5027854;28;20185;-72
2022/04/20 09:58:12;;;;;;;2.28;1.40;;;;;;;22.80;nan;100330.09;5027175;28;20041;-72
2022/04/20 10:00:42;;;;;;;;;;;;;;;22.52;nan;100331.63;5021735;28;20029;-72
2022/04/20 10:03:08;;;;;;;2.20;1.40;;;;;;;23.00;nan;100325.16;5022217;28;20462;-72
2022/04/20 10:05:34;;;;;;;2.58;1.60;;;;;;;23.48;nan;100318.53;5011240;28;20038;-72
2022/04/20 10:08:00;;;;;;;2.30;1.63;;;;;;;22.86;nan;100327.28;5010982;28;20089;-72
2022/04/20 10:10:33;;;;;;;2.47;1.42;;;;;;;22.26;nan;100316.75;4995223;28;20042;-72
2022/04/20 10:12:59;;;;;;;2.67;1.70;;;;;;;22.47;nan;100309.97;5013695;28;20284;-73
2022/04/20 10:18:17;;;;;;;2.40;1.70;;;;;;;23.83;nan;100320.22;5009540;28;20683;-72
2022/04/20 10:20:46;;;;;;;2.72;1.60;;;;;;;23.82;nan;100310.50;5006932;28;20038;-72
2022/04/20 10:23:14;;;;;;;2.65;1.50;;;;;;;23.84;nan;100319.16;5010152;28;20042;-72
2022/04/20 10:25:40;;;;;;;2.40;1.35;;;;;;;23.90;nan;100312.78;5013664;28;20038;-72
2022/04/20 10:28:25;;;;;;;3.08;1.80;;;;;;;24.39;nan;100309.47;5011283;28;20025;-72
2022/04/20 10:31:14;;;;;;;2.38;1.60;;;;;;;24.21;nan;100302.44;5004877;28;20187;-72
2022/04/20 10:33:41;;;;;;;2.67;1.55;;;;;;;24.54;nan;100311.59;5010195;28;20389;-72
2022/04/20 10:36:12;;;;;;;2.50;1.38;;;;;;;24.13;nan;100306.38;5011243;28;20154;-72
2022/04/20 10:38:38;;;;;;;2.72;1.52;;;;;;;24.78;nan;100302.19;5008412;28;20034;-72
2022/04/20 10:41:09;;;;;;;4.63;1.85;;;;;;;25.24;nan;100290.28;5015046;28;20144;-72
2022/04/20 10:43:39;;;;;;;4.97;1.50;;;;;;;26.02;nan;100285.31;5008581;28;20030;-72
2022/04/20 10:46:07;;;;;;;3.22;1.48;;;;;;;25.43;nan;100278.84;5008804;28;20176;-72
2022/04/20 10:49:15;;;;;;;2.03;1.40;;;;;;;24.40;nan;100270.56;5010590;28;20401;-72
2022/04/20 10:51:42;;;;;;;2.80;1.58;;;;;;;24.59;nan;100280.03;5011295;28;20041;-72
2022/04/20 10:54:27;;;;;;;2.67;1.48;;;;;;;24.89;nan;100272.56;5026569;28;20042;-72
2022/04/20 10:56:59;;;;;;;2.42;1.60;;;;;;;26.10;nan;100259.59;5022882;28;20440;-72
2022/04/20 10:59:24;;;;;;;2.60;1.63;;;;;;;26.90;nan;100257.59;5026182;28;20572;-73
2022/04/20 11:02:02;;;;;;;2.50;1.55;;;;;;;26.82;nan;100261.63;5025517;28;20383;-72
2022/04/20 11:04:46;;;;;;;1.70;1.30;;;;;;;27.81;nan;100244.41;5025444;28;20456;-72
2022/04/20 11:07:18;;;;;;;3.08;1.52;;;;;;;28.13;nan;100255.78;5025812;28;20040;-73
2022/04/20 11:09:51;;;;;;;2.25;1.38;;;;;;;29.33;nan;100246.84;5023164;28;20037;-73
2022/04/20 11:18:39;;;;;;;2.00;1.30;;;;;;;29.74;nan;100241.88;4989854;28;20089;-73
2022/04/20 11:21:06;;;;;;;2.35;1.60;;;;;;;29.56;nan;100239.88;5002851;28;20060;-72
2022/04/20 11:24:03;;;;;;;3.45;1.40;;;;;;;29.43;nan;100233.94;4989328;28;20096;-72
2022/04/20 11:26:41;;;;;;;2.45;1.70;;;;;;;29.38;nan;100231.28;5009460;28;20124;-73
2022/04/20 11:29:17;;;;;;;2.03;1.60;;;;;;;28.87;nan;100228.88;5009564;28;20037;-73
2022/04/20 11:31:48;;;;;;;2.80;1.85;;;;;;;27.51;nan;100224.31;5010104;28;20494;-72
2022/04/20 11:34:16;;;;;;;2.40;1.50;;;;;;;27.35;nan;100231.63;5009033;28;20173;-72
2022/04/20 11:36:45;;;;;;;2.95;1.48;;;;;;;27.62;nan;100223.22;5010136;28;20084;-73
2022/04/20 11:39:11;;;;;;;2.65;1.50;;;;;;;28.38;nan;100218.72;5009593;28;20034;-73
2022/04/20 11:41:38;;;;;;;2.63;1.60;;;;;;;29.05;nan;100219.22;5010494;28;20060;-72
2022/04/20 11:44:18;;;;;;;1.92;1.45;;;;;;;30.80;nan;100215.63;4972657;28;20044;-73
2022/04/20 11:46:44;;;;;;;2.47;1.70;;;;;;;32.08;nan;100219.84;5005978;28;20034;-73
2022/04/20 11:49:10;;;;;;;2.08;1.10;;;;;;;32.16;nan;100210.13;5008587;28;20089;-73
2022/04/20 11:51:36;;;;;;;5.47;1.80;;;;;;;30.72;nan;100213.53;5008538;28;20348;-72
2022/04/20 11:54:02;;;;;;;3.45;1.80;;;;;;;30.62;nan;100207.13;5009642;28;20117;-72
2022/04/20 11:56:32;;;;;;;2.55;1.40;;;;;;;29.98;nan;100211.13;5007657;28;20204;-72
2022/04/20 11:58:58;;;;;;;3.30;1.77;;;;;;;28.79;nan;100199.50;5009304;28;20125;-72
2022/04/20 12:01:25;;;;;;;2.40;1.60;;;;;;;28.10;nan;100198.44;5008061;28;20128;-73
2022/04/20 12:03:51;;;;;;;1.90;1.38;;;;;;;28.28;nan;100194.31;5010204;28;20041;-72
2022/04/20 12:06:17;;;;;;;2.30;1.50;;;;;;;27.19;nan;100192.78;5007528;28;20042;-72
2022/04/20 12:08:44;;;;;;;3.40;1.80;;;;;;;26.15;nan;100189.19;4993523;28;20034;-72
2022/04/20 12:11:11;;;;;;;4.43;1.80;;;;;;;24.46;nan;100184.97;5009168;28;20042;-72
2022/04/20 12:13:39;;;;;;;3.90;1.80;;;;;;;23.52;nan;100182.00;5010679;28;20108;-72
2022/04/20 12:16:08;;;;;;;2.58;1.75;;;;;;;21.91;nan;100180.25;5011300;28;20491;-72
2022/04/20 12:18:45;;;;;;;2.33;1.50;;;;;;;22.45;nan;100182.75;5012621;28;20033;-72
2022/04/20 12:21:42;;;;;;;2.70;1.63;;;;;;;22.63;nan;100174.50;5012490;28;20046;-72
2022/04/20 12:24:10;;;;;;;3.55;1.80;;;;;;;21.94;nan;100165.50;5007505;28;20449;-72